Terri-ann — WBD3593 — position and weather

sailwx.info

Track history (hours):
 
Tides and Currents Weather Stations Pressure Air Temp Water Temp Dewpoint Dewpoint Depression Visibility Wind Speed Wind Dir Waves Ship Positions

Terri-ann

Owner: CALICO LOBSTER CO INC, SANDWICH, MA. More information available from US FCC via Universal Licensing System and Coast Guard Vessel Documentation Center.

Last reported at 2015-Aug-01 22:27 UTC. Time now 2015-Aug-04 19:55 UTC.
Position N 41°30' W 069°04'.

Length 21 m.

Type: Fishing. MMSI: 367149920.

Date/timePositionNaut miles runAvg speedWind from/ knotsBaromVisibWave heightAir tempDewpointWater temp
2015-Aug-01 22:27N 41°30' W 069°04'27 4.5
2015-Aug-01 16:26N 41°14' W 068°35'2 2.3
2015-Aug-01 15:26N 41°13' W 068°32'24 2.2
2015-Aug-01 04:31N 40°51' W 068°46'8 0.3
2015-Jul-30 23:32N 40°44' W 068°52'21 1.3
2015-Jul-30 07:14N 41°02' W 068°38'4 6.0
2015-Jul-30 06:33N 40°59' W 068°40'10 4.8
2015-Jul-30 04:33N 40°50' W 068°46'6 6.0
2015-Jul-30 03:34N 40°45' W 068°49'7 6.6
2015-Jul-30 02:33N 40°39' W 068°53'8 7.7
2015-Jul-30 01:33N 40°32' W 068°58'7 7.3
2015-Jul-30 00:33N 40°25' W 069°02'36 2.6
2015-Jul-29 10:29N 40°04' W 069°40'3 3.7
2015-Jul-29 09:33N 40°07' W 069°38'7 6.9
2015-Jul-29 08:33N 40°14' W 069°39'1 0.8
2015-Jul-29 07:29N 40°14' W 069°39'4 3.6
2015-Jul-29 06:24N 40°15' W 069°45'7 7.6
2015-Jul-29 05:33N 40°20' W 069°50'24 7.3
2015-Jul-29 02:12N 40°39' W 070°09'5 7.3
2015-Jul-29 01:33N 40°43' W 070°13'23 7.6
2015-Jul-28 22:29N 41°01' W 070°32'7 7.5
2015-Jul-28 21:33N 41°07' W 070°37'8 7.4
2015-Jul-28 20:25N 41°14' W 070°44'6 7.5
2015-Jul-28 19:33N 41°19' W 070°50'8 7.4
2015-Jul-28 18:25N 41°27' W 070°51'  
2015-Jul-24 05:12N 40°10' W 069°14'3 4.4
2015-Jul-24 04:33N 40°13' W 069°12'4 3.9
2015-Jul-24 03:33N 40°16' W 069°09'14 0.6
2015-Jul-23 02:32N 40°27' W 069°20'  
Track history (hours):
 
Tides and Currents Weather Stations Pressure Air Temp Water Temp Dewpoint Dewpoint Depression Visibility Wind Speed Wind Dir Waves Ship Positions

Terri-ann

Owner: CALICO LOBSTER CO INC, SANDWICH, MA. More information available from US FCC via Universal Licensing System and Coast Guard Vessel Documentation Center.

Last reported at 2015-Aug-01 22:27 UTC. Time now 2015-Aug-04 19:55 UTC.
Position N 41°30' W 069°04'.

Length 21 m.

Type: Fishing. MMSI: 367149920.

Date/timePositionNaut miles runAvg speedWind from/ knotsBaromVisibWave heightAir tempDewpointWater temp
2015-Aug-01 22:27N 41°30' W 069°04'27 4.5
2015-Aug-01 16:26N 41°14' W 068°35'2 2.3
2015-Aug-01 15:26N 41°13' W 068°32'24 2.2
2015-Aug-01 04:31N 40°51' W 068°46'8 0.3
2015-Jul-30 23:32N 40°44' W 068°52'21 1.3
2015-Jul-30 07:14N 41°02' W 068°38'4 6.0
2015-Jul-30 06:33N 40°59' W 068°40'10 4.8
2015-Jul-30 04:33N 40°50' W 068°46'6 6.0
2015-Jul-30 03:34N 40°45' W 068°49'7 6.6
2015-Jul-30 02:33N 40°39' W 068°53'8 7.7
2015-Jul-30 01:33N 40°32' W 068°58'7 7.3
2015-Jul-30 00:33N 40°25' W 069°02'36 2.6
2015-Jul-29 10:29N 40°04' W 069°40'3 3.7
2015-Jul-29 09:33N 40°07' W 069°38'7 6.9
2015-Jul-29 08:33N 40°14' W 069°39'1 0.8
2015-Jul-29 07:29N 40°14' W 069°39'4 3.6
2015-Jul-29 06:24N 40°15' W 069°45'7 7.6
2015-Jul-29 05:33N 40°20' W 069°50'24 7.3
2015-Jul-29 02:12N 40°39' W 070°09'5 7.3
2015-Jul-29 01:33N 40°43' W 070°13'23 7.6
2015-Jul-28 22:29N 41°01' W 070°32'7 7.5
2015-Jul-28 21:33N 41°07' W 070°37'8 7.4
2015-Jul-28 20:25N 41°14' W 070°44'6 7.5
2015-Jul-28 19:33N 41°19' W 070°50'8 7.4
2015-Jul-28 18:25N 41°27' W 070°51'  
2015-Jul-24 05:12N 40°10' W 069°14'3 4.4
2015-Jul-24 04:33N 40°13' W 069°12'4 3.9
2015-Jul-24 03:33N 40°16' W 069°09'14 0.6
2015-Jul-23 02:32N 40°27' W 069°20'  

Dump ship's entire track history